Time;durP1;ratioP1;P1;durP2;ratioP2;P2;SDS_P1;SDS_P2;PMS_P1;PMS_P2;Temp;Humidity;BMP_temperature;BMP_pressure;BME280_temperature;BME280_humidity;BME280_pressure;Samples;Min_cycle;Max_cycle;Signal;HPM_P1;HPM_P2
2022/06/23 00:01:23;;;;;;;7.53;5.82;;;25.70;96.70;;;;;;4967060;28;20508;-82
2022/06/23 00:03:54;;;;;;;7.20;6.35;;;25.70;96.70;;;;;;4947716;28;20054;-81
2022/06/23 00:06:34;;;;;;;7.18;6.47;;;25.80;96.70;;;;;;4954385;28;20081;-81
2022/06/23 00:09:29;;;;;;;6.97;6.28;;;25.90;96.70;;;;;;4955732;28;20127;-81
2022/06/23 00:11:57;;;;;;;10.90;5.85;;;25.90;96.70;;;;;;4956687;28;20058;-81
2022/06/23 00:14:26;;;;;;;8.20;6.35;;;25.90;96.70;;;;;;4972245;28;20515;-82
2022/06/23 00:16:55;;;;;;;11.93;6.65;;;26.00;96.70;;;;;;4958378;28;20053;-80
2022/06/23 00:19:23;;;;;;;8.18;6.45;;;25.90;96.70;;;;;;4954260;28;20042;-81
2022/06/23 00:21:53;;;;;;;8.60;7.13;;;25.90;96.70;;;;;;4971959;28;20073;-81
2022/06/23 00:24:25;;;;;;;10.43;6.65;;;25.90;96.70;;;;;;4977208;28;20070;-81
2022/06/23 00:26:54;;;;;;;9.80;6.53;;;25.80;96.70;;;;;;4968732;28;20063;-80
2022/06/23 00:29:23;;;;;;;9.05;6.28;;;25.80;96.70;;;;;;4951029;28;20046;-83
2022/06/23 00:31:56;;;;;;;7.45;6.45;;;25.80;96.70;;;;;;4950447;28;20055;-83
2022/06/23 00:34:27;;;;;;;8.80;6.82;;;25.80;96.70;;;;;;4950698;28;20050;-84
2022/06/23 00:37:01;;;;;;;7.25;6.03;;;25.90;96.70;;;;;;4950062;28;20043;-83
2022/06/23 00:39:34;;;;;;;6.75;6.07;;;26.00;96.70;;;;;;4948454;28;20061;-83
2022/06/23 00:42:05;;;;;;;7.55;6.47;;;26.00;96.70;;;;;;4952690;28;20412;-83
2022/06/23 00:44:40;;;;;;;7.85;6.40;;;26.00;96.70;;;;;;4965627;28;20039;-83
2022/06/23 00:47:15;;;;;;;10.27;6.78;;;25.90;96.70;;;;;;4967981;28;20049;-83
2022/06/23 00:49:50;;;;;;;7.97;7.13;;;25.80;96.70;;;;;;4953715;28;20090;-84
2022/06/23 00:52:24;;;;;;;7.93;5.95;;;25.90;96.70;;;;;;4952299;28;20043;-83
2022/06/23 00:55:12;;;;;;;8.25;6.88;;;25.80;96.70;;;;;;4964547;28;20049;-83
2022/06/23 00:57:46;;;;;;;9.30;6.53;;;25.70;96.70;;;;;;4956501;28;20046;-82
2022/06/23 01:00:20;;;;;;;7.18;6.25;;;25.60;96.70;;;;;;4972187;28;20053;-83
2022/06/23 01:02:51;;;;;;;9.43;5.88;;;25.60;96.70;;;;;;4966296;28;20105;-83
2022/06/23 01:05:23;;;;;;;7.18;6.55;;;25.70;96.70;;;;;;4972242;28;20524;-83
2022/06/23 01:07:59;;;;;;;10.65;6.43;;;25.80;96.70;;;;;;4955146;28;20050;-83
2022/06/23 01:10:39;;;;;;;6.63;5.85;;;25.80;96.70;;;;;;4960923;28;20050;-83
2022/06/23 01:13:14;;;;;;;8.07;6.60;;;25.80;96.70;;;;;;4964913;28;20074;-84
2022/06/23 01:15:47;;;;;;;9.15;6.50;;;25.80;96.70;;;;;;4969682;28;20082;-82
2022/06/23 01:18:21;;;;;;;8.43;6.50;;;25.80;96.70;;;;;;4966954;28;20047;-83
2022/06/23 01:20:55;;;;;;;7.03;6.32;;;25.60;96.70;;;;;;4965619;28;20054;-81
2022/06/23 01:23:52;;;;;;;7.72;6.70;;;25.60;96.70;;;;;;4954647;28;20121;-81
2022/06/23 01:26:47;;;;;;;9.93;6.97;;;25.60;96.70;;;;;;4964570;28;20058;-81
2022/06/23 01:29:20;;;;;;;7.40;6.15;;;25.60;96.70;;;;;;4951409;28;20066;-81
2022/06/23 01:31:53;;;;;;;7.28;6.53;;;25.60;96.70;;;;;;4971408;28;20054;-81
2022/06/23 01:34:29;;;;;;;8.68;6.63;;;25.60;96.70;;;;;;4953560;28;20043;-81
2022/06/23 01:37:01;;;;;;;8.63;6.93;;;25.50;96.70;;;;;;4963033;28;20157;-80
2022/06/23 01:39:36;;;;;;;8.57;6.57;;;25.50;96.70;;;;;;4964598;28;20539;-81
2022/06/23 01:42:15;;;;;;;7.53;6.78;;;25.50;96.70;;;;;;4961501;28;20146;-81
2022/06/23 01:44:51;;;;;;;7.65;6.95;;;25.50;96.70;;;;;;4948972;28;20047;-81
2022/06/23 01:47:26;;;;;;;9.13;6.47;;;25.50;96.70;;;;;;4963446;28;20053;-81
2022/06/23 01:50:03;;;;;;;7.78;6.93;;;25.30;96.70;;;;;;4953945;28;20700;-80
2022/06/23 01:52:30;;;;;;;6.78;6.05;;;25.40;96.70;;;;;;4969327;28;20046;-81
2022/06/23 01:55:13;;;;;;;9.80;6.47;;;25.40;96.70;;;;;;4967588;28;20054;-81
2022/06/23 01:57:46;;;;;;;8.60;6.32;;;25.40;96.70;;;;;;4966112;28;20153;-80
2022/06/23 02:00:19;;;;;;;6.85;6.25;;;25.40;96.70;;;;;;4948062;28;20527;-81
2022/06/23 02:02:56;;;;;;;6.32;5.72;;;25.40;96.70;;;;;;4965239;28;20097;-80
2022/06/23 02:05:36;;;;;;;7.55;5.85;;;25.40;96.70;;;;;;4967268;28;20053;-80
2022/06/23 02:08:12;;;;;;;6.43;5.82;;;25.40;96.70;;;;;;4969258;28;20042;-81
2022/06/23 02:10:52;;;;;;;7.03;5.47;;;25.40;96.70;;;;;;4958693;28;20046;-81
2022/06/23 02:13:24;;;;;;;7.57;6.07;;;25.30;96.70;;;;;;4966870;28;20277;-81
2022/06/23 02:16:02;;;;;;;6.78;5.75;;;25.20;96.70;;;;;;4949025;28;20500;-81
2022/06/23 02:18:34;;;;;;;9.88;6.35;;;25.30;96.70;;;;;;4974821;28;20074;-81
2022/06/23 02:21:20;;;;;;;6.65;5.72;;;25.20;96.70;;;;;;4954349;28;20063;-81
2022/06/23 02:23:53;;;;;;;8.82;6.28;;;25.30;96.70;;;;;;4946984;28;20050;-81
2022/06/23 02:26:26;;;;;;;6.70;6.03;;;25.20;96.70;;;;;;4965069;28;20043;-81
2022/06/23 02:29:01;;;;;;;6.50;5.82;;;25.00;96.70;;;;;;4964546;28;20050;-81
2022/06/23 02:31:41;;;;;;;7.30;5.80;;;24.80;96.70;;;;;;4968343;28;20042;-81
2022/06/23 02:34:16;;;;;;;6.50;5.85;;;24.80;96.70;;;;;;4968279;28;20050;-81
2022/06/23 02:37:01;;;;;;;7.82;5.72;;;24.80;96.70;;;;;;4964639;28;20053;-80
2022/06/23 02:39:35;;;;;;;5.53;4.95;;;24.80;96.70;;;;;;4944415;28;20047;-80
2022/06/23 02:42:14;;;;;;;5.82;5.28;;;24.80;96.70;;;;;;4963429;28;20061;-81
2022/06/23 02:44:55;;;;;;;8.90;5.72;;;24.80;96.70;;;;;;4968227;28;20046;-81
2022/06/23 02:47:39;;;;;;;5.97;5.03;;;24.70;96.70;;;;;;4967941;28;20049;-81
2022/06/23 02:50:29;;;;;;;6.45;5.82;;;24.70;96.70;;;;;;4966707;28;20054;-81
2022/06/23 02:53:25;;;;;;;8.55;5.50;;;24.80;96.70;;;;;;4963992;28;20053;-81
2022/06/23 02:56:31;;;;;;;6.80;6.10;;;24.70;96.70;;;;;;4965997;28;20050;-81
2022/06/23 02:59:06;;;;;;;7.40;6.07;;;24.50;96.70;;;;;;4970633;28;20042;-81
2022/06/23 03:01:40;;;;;;;8.02;6.40;;;24.50;96.70;;;;;;4948808;28;20050;-82
2022/06/23 03:04:14;;;;;;;6.63;5.95;;;24.70;96.70;;;;;;4946904;28;20048;-81
2022/06/23 03:06:48;;;;;;;7.55;6.43;;;24.70;96.70;;;;;;4954507;28;20046;-81
2022/06/23 03:09:22;;;;;;;7.63;5.90;;;24.50;96.70;;;;;;4965562;28;20055;-81
2022/06/23 03:11:56;;;;;;;9.23;7.03;;;24.50;96.70;;;;;;4964393;28;20054;-81
2022/06/23 03:14:36;;;;;;;8.80;7.05;;;24.50;96.70;;;;;;4963531;28;20161;-81
2022/06/23 03:17:15;;;;;;;7.45;6.75;;;24.60;96.70;;;;;;4947053;28;20154;-81
2022/06/23 03:19:55;;;;;;;8.85;7.28;;;24.70;96.70;;;;;;4949170;28;20645;-81
2022/06/23 03:22:32;;;;;;;6.72;5.85;;;24.70;96.70;;;;;;4968813;28;20050;-81
2022/06/23 03:25:11;;;;;;;8.55;6.03;;;24.50;96.70;;;;;;4953743;28;20039;-81
2022/06/23 03:27:47;;;;;;;9.27;6.28;;;24.40;96.70;;;;;;4969666;28;20059;-81
2022/06/23 03:30:21;;;;;;;7.55;6.30;;;24.50;96.70;;;;;;4951272;28;20047;-81
2022/06/23 03:32:55;;;;;;;6.80;5.78;;;24.60;96.70;;;;;;4947488;28;20147;-81
2022/06/23 03:35:33;;;;;;;6.70;6.00;;;24.70;96.70;;;;;;4964024;28;20051;-81
2022/06/23 03:38:05;;;;;;;6.68;6.07;;;24.70;96.70;;;;;;4949366;28;20155;-81
2022/06/23 03:43:38;;;;;;;6.90;6.20;;;24.60;96.70;;;;;;4963697;28;20046;-82
2022/06/23 03:46:15;;;;;;;7.32;5.72;;;24.70;96.70;;;;;;4948051;29;20055;-81
2022/06/23 03:48:48;;;;;;;6.55;5.63;;;24.80;96.70;;;;;;4963377;28;20051;-80
2022/06/23 03:51:22;;;;;;;7.32;5.80;;;24.80;96.70;;;;;;4958723;28;20150;-82
2022/06/23 03:53:52;;;;;;;6.72;6.03;;;24.80;96.70;;;;;;4966386;28;20051;-80
2022/06/23 03:56:23;;;;;;;8.57;6.05;;;24.80;96.70;;;;;;4950749;28;20052;-82
2022/06/23 03:58:57;;;;;;;7.00;5.70;;;24.80;96.70;;;;;;4952309;28;20105;-81
2022/06/23 04:01:30;;;;;;;7.50;5.65;;;24.80;96.70;;;;;;4949005;28;20046;-81
2022/06/23 04:04:03;;;;;;;7.03;5.72;;;24.90;96.70;;;;;;4946909;28;20043;-82
2022/06/23 04:06:36;;;;;;;7.57;6.38;;;24.80;96.70;;;;;;4947577;28;20069;-81
2022/06/23 04:09:13;;;;;;;9.27;7.88;;;24.80;96.70;;;;;;4946386;28;20576;-82
2022/06/23 04:12:02;;;;;;;10.52;7.50;;;24.90;96.70;;;;;;4951384;28;20398;-82
2022/06/23 04:14:49;;;;;;;9.50;8.50;;;24.80;96.70;;;;;;4948097;28;20047;-82
2022/06/23 04:17:25;;;;;;;10.23;8.20;;;24.90;96.70;;;;;;4944257;28;20103;-82
2022/06/23 04:19:57;;;;;;;11.57;8.90;;;24.90;96.70;;;;;;4948840;28;21927;-82
2022/06/23 04:22:32;;;;;;;10.05;7.43;;;24.90;96.70;;;;;;4964323;28;20105;-81
2022/06/23 04:25:02;;;;;;;8.77;7.90;;;25.00;96.70;;;;;;4968023;28;20725;-82
2022/06/23 04:27:37;;;;;;;9.63;6.82;;;25.10;96.70;;;;;;4944695;28;20165;-81
2022/06/23 04:30:07;;;;;;;10.68;6.72;;;25.10;96.70;;;;;;4952260;28;20072;-82
2022/06/23 04:32:36;;;;;;;8.50;6.47;;;25.10;96.70;;;;;;4949802;28;20058;-83
2022/06/23 04:35:14;;;;;;;10.07;6.80;;;25.10;96.70;;;;;;4949307;28;20051;-82
2022/06/23 04:37:51;;;;;;;7.55;5.90;;;25.10;96.70;;;;;;4951037;28;20047;-82
2022/06/23 04:40:24;;;;;;;7.75;6.65;;;25.00;96.70;;;;;;4947996;28;20043;-82
2022/06/23 04:42:57;;;;;;;7.18;5.95;;;25.10;96.70;;;;;;4949761;28;20078;-82
2022/06/23 04:45:42;;;;;;;6.72;6.00;;;25.10;96.70;;;;;;4963431;28;20631;-84
2022/06/23 04:48:21;;;;;;;7.90;6.70;;;25.20;96.70;;;;;;4962509;28;20051;-82
2022/06/23 04:50:54;;;;;;;10.20;6.80;;;25.30;96.70;;;;;;4960202;28;20051;-82
2022/06/23 04:53:48;;;;;;;10.13;7.10;;;25.30;96.70;;;;;;4950456;28;20051;-82
2022/06/23 04:56:42;;;;;;;8.45;7.25;;;25.30;96.70;;;;;;4962329;28;20039;-81
2022/06/23 04:59:26;;;;;;;8.68;7.00;;;25.30;96.70;;;;;;4942624;28;20450;-82
2022/06/23 05:01:56;;;;;;;12.32;6.75;;;25.30;96.70;;;;;;4950667;28;20133;-82
2022/06/23 05:04:29;;;;;;;8.30;7.60;;;25.20;96.70;;;;;;4951538;28;20047;-82
2022/06/23 05:07:00;;;;;;;11.25;8.18;;;25.00;96.70;;;;;;4948136;28;20071;-82
2022/06/23 05:09:35;;;;;;;10.02;7.68;;;25.00;96.70;;;;;;4945188;28;20050;-82
2022/06/23 05:12:12;;;;;;;8.43;7.57;;;25.10;96.70;;;;;;4947696;29;20193;-82
2022/06/23 05:14:46;;;;;;;9.68;7.13;;;25.10;96.70;;;;;;4961651;28;20055;-82
2022/06/23 05:17:22;;;;;;;10.30;7.70;;;25.00;96.70;;;;;;4961023;28;20051;-82
2022/06/23 05:19:54;;;;;;;10.03;9.00;;;24.90;96.70;;;;;;4961578;28;20051;-83
2022/06/23 05:22:28;;;;;;;11.88;7.78;;;24.60;96.70;;;;;;4949538;28;20322;-82
2022/06/23 05:25:24;;;;;;;13.82;9.07;;;24.50;96.70;;;;;;4962846;28;20747;-82
2022/06/23 05:27:53;;;;;;;9.45;7.97;;;24.50;96.70;;;;;;4967951;28;20050;-81
2022/06/23 05:30:27;;;;;;;10.90;8.55;;;24.60;96.70;;;;;;4967482;28;20079;-82
2022/06/23 05:33:00;;;;;;;9.77;7.70;;;24.60;96.70;;;;;;4951563;28;20147;-81
2022/06/23 05:35:35;;;;;;;10.02;7.80;;;24.70;96.70;;;;;;4952644;28;20126;-80
2022/06/23 05:38:08;;;;;;;18.02;8.18;;;24.90;96.70;;;;;;4945845;28;20062;-81
2022/06/23 05:40:53;;;;;;;9.82;7.95;;;24.90;96.70;;;;;;4948339;28;20292;-79
2022/06/23 05:43:22;;;;;;;9.32;8.40;;;25.00;96.70;;;;;;4948449;28;20051;-80
2022/06/23 05:45:53;;;;;;;10.75;8.27;;;25.00;96.70;;;;;;4958629;28;20051;-80
2022/06/23 05:48:24;;;;;;;12.50;8.45;;;24.90;96.70;;;;;;4943719;28;20047;-80
2022/06/23 05:50:56;;;;;;;13.38;8.27;;;25.00;96.70;;;;;;4968169;28;20505;-79
2022/06/23 05:53:31;;;;;;;10.75;8.30;;;25.10;96.70;;;;;;4950919;28;20123;-79
2022/06/23 05:56:03;;;;;;;11.88;8.23;;;25.20;96.70;;;;;;4967134;28;20050;-78
2022/06/23 05:58:40;;;;;;;10.75;8.82;;;25.30;96.70;;;;;;4961865;28;20051;-81
2022/06/23 06:01:16;;;;;;;13.90;9.18;;;25.40;96.70;;;;;;4947957;28;20437;-80
2022/06/23 06:03:49;;;;;;;14.60;9.13;;;25.40;96.70;;;;;;4961489;28;20051;-78
2022/06/23 06:06:18;;;;;;;11.93;8.57;;;25.40;96.70;;;;;;4932956;29;20070;-78
2022/06/23 06:11:41;;;;;;;11.75;9.15;;;25.50;96.70;;;;;;4944432;28;20058;-80
2022/06/23 06:14:13;;;;;;;14.77;8.43;;;25.60;96.70;;;;;;4961198;28;20050;-82
2022/06/23 06:16:41;;;;;;;9.60;7.95;;;25.60;96.70;;;;;;4961840;28;20047;-79
2022/06/23 06:19:13;;;;;;;10.95;7.90;;;25.80;96.70;;;;;;4948556;28;20043;-78
2022/06/23 06:21:41;;;;;;;10.13;7.85;;;25.80;96.70;;;;;;4960620;28;20062;-81
2022/06/23 06:24:17;;;;;;;13.48;8.45;;;25.80;96.70;;;;;;4949091;28;20458;-79
2022/06/23 06:26:51;;;;;;;11.43;8.27;;;25.80;96.70;;;;;;4941950;28;20154;-80
2022/06/23 06:29:22;;;;;;;12.77;8.40;;;25.80;96.70;;;;;;4964834;28;20051;-80
2022/06/23 06:31:55;;;;;;;17.02;8.38;;;25.80;96.70;;;;;;4970459;28;20055;-80
2022/06/23 06:34:29;;;;;;;10.48;8.30;;;25.90;96.70;;;;;;4953625;28;20105;-79
2022/06/23 06:36:58;;;;;;;9.52;8.27;;;25.90;96.70;;;;;;4966948;28;20074;-79
2022/06/23 06:39:29;;;;;;;10.15;7.63;;;26.00;96.70;;;;;;4969324;28;20051;-79
2022/06/23 06:42:03;;;;;;;10.35;8.65;;;26.00;96.70;;;;;;4952344;28;20058;-78
2022/06/23 06:44:32;;;;;;;11.98;9.13;;;26.00;96.70;;;;;;4948201;28;20054;-78
2022/06/23 06:47:01;;;;;;;14.55;8.35;;;25.90;96.70;;;;;;4942545;28;20373;-79
2022/06/23 06:49:31;;;;;;;9.20;7.97;;;26.00;96.70;;;;;;4966412;28;20070;-80
2022/06/23 06:52:00;;;;;;;10.70;8.07;;;26.00;96.70;;;;;;4966237;28;20138;-78
2022/06/23 06:54:35;;;;;;;10.43;8.63;;;26.10;96.70;;;;;;4968387;28;20057;-79
2022/06/23 06:57:09;;;;;;;11.32;8.38;;;26.10;96.70;;;;;;4955348;28;20058;-79
2022/06/23 06:59:44;;;;;;;11.95;8.80;;;26.10;96.70;;;;;;4951212;28;20082;-79
2022/06/23 07:02:18;;;;;;;11.95;9.40;;;26.20;96.70;;;;;;4977701;28;20105;-79
2022/06/23 07:05:14;;;;;;;14.40;10.20;;;26.10;96.70;;;;;;4923565;29;20059;-80
2022/06/23 07:07:47;;;;;;;13.00;9.82;;;26.10;96.70;;;;;;4932245;29;20142;-79
2022/06/23 07:10:23;;;;;;;15.18;10.13;;;26.20;96.70;;;;;;4933437;28;20114;-79
2022/06/23 07:12:55;;;;;;;;;;;26.20;96.70;;;;;;4928758;29;20059;-78
2022/06/23 07:15:30;;;;;;;12.30;9.55;;;26.20;96.70;;;;;;4927411;28;20428;-78
2022/06/23 07:18:06;;;;;;;10.80;9.57;;;26.20;96.70;;;;;;4929910;29;20060;-79
2022/06/23 07:20:43;;;;;;;13.18;9.32;;;26.20;96.70;;;;;;4930315;29;20111;-79
2022/06/23 07:23:17;;;;;;;12.05;9.27;;;26.30;96.70;;;;;;4930781;29;20102;-78
2022/06/23 07:25:51;;;;;;;12.85;9.80;;;26.40;96.70;;;;;;4936434;29;20195;-79
2022/06/23 07:28:30;;;;;;;11.63;9.25;;;26.40;96.70;;;;;;4930143;29;20150;-80
2022/06/23 07:31:03;;;;;;;15.70;9.10;;;26.40;96.70;;;;;;4931091;29;20063;-79
2022/06/23 07:33:37;;;;;;;10.50;8.73;;;26.50;96.70;;;;;;4912660;29;20044;-79
2022/06/23 07:36:11;;;;;;;10.27;8.63;;;26.70;96.70;;;;;;4928705;29;20088;-79
2022/06/23 07:38:46;;;;;;;14.40;9.63;;;26.90;96.70;;;;;;4934065;29;20618;-80
2022/06/23 07:41:19;;;;;;;11.15;8.38;;;27.00;96.70;;;;;;4935228;29;20133;-79
2022/06/23 07:43:58;;;;;;;19.08;9.60;;;27.00;96.70;;;;;;4929322;29;20542;-79
2022/06/23 07:46:26;;;;;;;12.20;9.48;;;27.10;96.70;;;;;;4931966;29;20047;-79
2022/06/23 07:48:54;;;;;;;12.80;9.32;;;27.10;96.70;;;;;;4925387;28;20051;-80
2022/06/23 07:51:23;;;;;;;12.20;9.80;;;27.20;96.70;;;;;;4910936;29;20143;-80
2022/06/23 07:53:54;;;;;;;10.63;9.57;;;27.30;96.70;;;;;;4910416;29;20051;-80
2022/06/23 07:56:24;;;;;;;13.60;8.80;;;27.40;96.70;;;;;;4924219;29;20654;-79
2022/06/23 07:58:58;;;;;;;11.23;8.70;;;27.50;96.70;;;;;;4912277;29;20047;-79
2022/06/23 08:01:30;;;;;;;20.52;10.15;;;27.60;96.70;;;;;;4925523;29;20086;-79
2022/06/23 08:04:03;;;;;;;15.27;9.98;;;27.70;96.70;;;;;;4926057;29;20162;-80
2022/06/23 08:06:33;;;;;;;13.85;10.80;;;27.70;96.70;;;;;;4924993;29;20541;-80
2022/06/23 08:09:06;;;;;;;15.50;10.18;;;27.70;96.70;;;;;;4912672;29;20577;-80
2022/06/23 08:14:49;;;;;;;13.73;10.32;;;27.60;96.70;;;;;;4937042;28;20600;-79
2022/06/23 08:17:19;;;;;;;12.90;9.48;;;27.70;96.70;;;;;;4951485;28;20049;-80
2022/06/23 08:19:54;;;;;;;9.27;8.35;;;27.70;96.70;;;;;;4957793;28;20560;-80
2022/06/23 08:22:25;;;;;;;10.77;7.75;;;27.80;96.70;;;;;;4956377;28;20050;-80
2022/06/23 08:25:06;;;;;;;17.42;9.75;;;28.00;96.70;;;;;;4970857;28;20055;-80
2022/06/23 08:27:52;;;;;;;10.05;8.50;;;28.10;96.70;;;;;;4946869;29;20851;-80
2022/06/23 08:30:25;;;;;;;10.05;8.25;;;28.10;96.70;;;;;;4953694;28;20071;-80
2022/06/23 08:32:54;;;;;;;11.38;8.05;;;28.10;96.70;;;;;;4967126;28;20414;-80
2022/06/23 08:35:27;;;;;;;11.68;8.90;;;28.20;96.70;;;;;;4964805;28;20522;-80
2022/06/23 08:38:01;;;;;;;8.95;7.80;;;28.40;96.70;;;;;;4948597;28;20110;-80
2022/06/23 08:40:40;;;;;;;12.68;8.30;;;28.60;96.70;;;;;;4953093;28;20043;-80
2022/06/23 08:43:21;;;;;;;8.35;7.55;;;28.60;96.70;;;;;;4955183;28;20418;-80
2022/06/23 08:45:55;;;;;;;9.80;7.65;;;28.50;96.70;;;;;;4961791;28;20062;-81
2022/06/23 08:48:31;;;;;;;7.88;6.95;;;28.60;96.70;;;;;;4950860;28;20665;-80
2022/06/23 08:51:05;;;;;;;9.98;6.97;;;28.70;96.70;;;;;;4950964;28;20047;-80
2022/06/23 08:53:42;;;;;;;8.85;6.43;;;28.70;96.70;;;;;;4965438;28;20112;-80
2022/06/23 08:56:19;;;;;;;9.63;5.95;;;28.50;96.70;;;;;;4963906;28;20062;-80
2022/06/23 08:58:52;;;;;;;8.77;6.20;;;28.50;96.70;;;;;;4946993;28;20141;-80
2022/06/23 09:01:28;;;;;;;9.23;5.57;;;28.60;96.70;;;;;;4961815;28;20055;-80
2022/06/23 09:04:05;;;;;;;10.00;5.82;;;28.70;96.70;;;;;;4962000;28;20129;-80
2022/06/23 09:06:40;;;;;;;8.15;5.38;;;28.60;96.70;;;;;;4947769;29;20043;-80
2022/06/23 09:09:24;;;;;;;9.55;5.70;;;28.60;96.70;;;;;;4963137;28;20070;-80
2022/06/23 09:11:59;;;;;;;6.40;5.38;;;28.80;96.70;;;;;;4953460;28;20089;-80
2022/06/23 09:14:55;;;;;;;8.80;5.43;;;28.70;96.70;;;;;;4945634;28;20047;-80
2022/06/23 09:17:51;;;;;;;9.77;5.82;;;28.70;96.70;;;;;;4947447;28;20094;-80
2022/06/23 09:20:39;;;;;;;11.52;5.93;;;28.70;96.70;;;;;;4927061;29;20103;-80
2022/06/23 09:23:34;;;;;;;12.30;5.95;;;28.60;96.70;;;;;;4945306;29;20055;-80
2022/06/23 09:26:10;;;;;;;9.10;5.55;;;28.60;96.70;;;;;;4917083;28;20588;-80
2022/06/23 09:28:50;;;;;;;9.93;6.53;;;28.50;96.70;;;;;;4967573;28;20540;-80
2022/06/23 09:31:21;;;;;;;10.90;6.43;;;28.50;96.70;;;;;;4965013;28;20058;-80
2022/06/23 09:34:10;;;;;;;9.68;6.07;;;28.30;96.70;;;;;;4966014;28;20462;-80
2022/06/23 09:37:13;;;;;;;9.73;6.40;;;28.30;96.70;;;;;;4966746;28;20085;-80
2022/06/23 09:40:11;;;;;;;6.30;5.70;;;28.50;96.70;;;;;;4914255;28;20058;-80
2022/06/23 09:42:47;;;;;;;;;;;28.50;96.70;;;;;;4968735;28;20077;-79
2022/06/23 09:45:46;;;;;;;9.13;5.70;;;28.70;96.70;;;;;;4968530;28;19925;-80
2022/06/23 09:48:45;;;;;;;8.15;5.80;;;28.80;96.70;;;;;;4950912;28;20046;-80
2022/06/23 09:51:57;;;;;;;10.30;5.07;;;28.90;96.70;;;;;;4970735;28;20053;-79
2022/06/23 09:54:55;;;;;;;11.95;5.47;;;28.90;96.70;;;;;;4928079;28;20055;-80
2022/06/23 09:57:52;;;;;;;7.28;5.35;;;28.90;96.70;;;;;;4958744;28;20689;-81
2022/06/23 10:00:25;;;;;;;10.10;5.38;;;28.80;96.70;;;;;;4952048;28;20452;-80
2022/06/23 10:03:03;;;;;;;7.22;5.38;;;28.90;96.70;;;;;;4964746;28;21066;-79
2022/06/23 10:06:07;;;;;;;9.52;4.90;;;29.00;96.70;;;;;;4949204;28;20094;-79
2022/06/23 10:09:04;;;;;;;7.13;5.22;;;29.00;96.70;;;;;;4945769;28;20051;-79
2022/06/23 10:12:09;;;;;;;7.53;5.20;;;29.00;96.70;;;;;;4966369;28;20039;-80
2022/06/23 10:15:02;;;;;;;8.48;5.40;;;28.80;96.70;;;;;;4964512;28;20050;-78
2022/06/23 10:18:00;;;;;;;7.72;5.15;;;28.70;96.70;;;;;;4962442;28;20093;-78
2022/06/23 10:20:45;;;;;;;6.88;4.57;;;28.60;96.70;;;;;;4970425;28;20504;-77
2022/06/23 10:23:51;;;;;;;8.50;4.75;;;28.50;96.70;;;;;;4949737;28;20062;-78
2022/06/23 10:26:38;;;;;;;8.52;5.10;;;28.40;96.70;;;;;;4962551;28;20138;-77
2022/06/23 10:29:30;;;;;;;7.72;4.70;;;28.30;96.70;;;;;;4944400;28;20047;-79
2022/06/23 10:32:31;;;;;;;11.55;5.35;;;28.20;96.70;;;;;;4962562;28;20478;-77
2022/06/23 10:35:14;;;;;;;11.63;4.75;;;28.20;96.70;;;;;;4940491;28;20067;-77
2022/06/23 10:38:12;;;;;;;10.65;5.30;;;28.10;96.70;;;;;;4963889;28;20502;-77
2022/06/23 10:41:15;;;;;;;11.15;5.25;;;28.00;96.70;;;;;;4946206;28;20509;-77
2022/06/23 10:44:31;;;;;;;7.32;5.00;;;28.00;96.70;;;;;;4945121;28;20058;-77
2022/06/23 10:47:16;;;;;;;6.63;4.88;;;27.90;96.70;;;;;;4867196;29;20559;-78
2022/06/23 10:50:16;;;;;;;10.75;5.47;;;27.80;96.70;;;;;;4961393;28;20055;-77
2022/06/23 10:53:26;;;;;;;9.98;5.78;;;27.80;96.70;;;;;;4945496;28;20557;-78
2022/06/23 10:56:03;;;;;;;10.35;6.25;;;27.70;96.70;;;;;;4945701;28;20951;-83
2022/06/23 10:59:30;;;;;;;11.52;5.90;;;27.60;96.70;;;;;;4950422;28;20870;-80
2022/06/23 11:02:15;;;;;;;8.63;6.03;;;27.50;96.70;;;;;;4954577;28;20047;-82
2022/06/23 11:05:08;;;;;;;7.72;5.65;;;27.50;96.70;;;;;;4945788;28;20048;-78
2022/06/23 11:07:51;;;;;;;13.90;6.00;;;27.60;96.70;;;;;;4958455;28;20055;-80
2022/06/23 11:10:36;;;;;;;7.07;5.00;;;27.80;96.70;;;;;;4946419;28;20073;-80
2022/06/23 11:13:19;;;;;;;7.03;5.43;;;27.90;96.70;;;;;;4949019;28;20070;-80
2022/06/23 11:16:02;;;;;;;7.68;5.07;;;28.00;96.70;;;;;;4945536;28;20090;-79
2022/06/23 11:18:45;;;;;;;8.88;5.10;;;28.00;96.70;;;;;;4943922;28;20118;-78
2022/06/23 11:21:38;;;;;;;7.13;4.88;;;28.00;96.70;;;;;;4957729;28;20059;-78
2022/06/23 11:24:16;;;;;;;10.27;5.53;;;28.00;96.70;;;;;;4944076;28;20051;-78
2022/06/23 11:26:59;;;;;;;6.30;4.88;;;28.10;96.70;;;;;;4964151;28;20654;-78
2022/06/23 11:29:47;;;;;;;7.60;5.32;;;28.20;96.70;;;;;;4962631;28;20038;-77
2022/06/23 11:32:31;;;;;;;9.07;4.68;;;28.30;96.70;;;;;;4964550;28;20050;-80
2022/06/23 11:35:24;;;;;;;9.90;4.95;;;28.30;96.70;;;;;;4967547;28;20042;-81
2022/06/23 11:38:11;;;;;;;8.07;4.90;;;28.30;96.70;;;;;;4947481;28;20051;-82
2022/06/23 11:41:11;;;;;;;9.00;5.25;;;28.40;96.70;;;;;;4941074;28;20138;-81
2022/06/23 11:43:55;;;;;;;8.48;5.35;;;28.40;96.70;;;;;;4934400;28;20059;-82
2022/06/23 11:46:34;;;;;;;9.77;5.75;;;28.50;96.70;;;;;;4948383;28;20058;-81
2022/06/23 11:49:28;;;;;;;9.60;5.20;;;28.50;96.70;;;;;;4932133;28;20421;-81
2022/06/23 11:52:19;;;;;;;8.77;5.00;;;28.60;96.70;;;;;;4935495;28;20122;-81
2022/06/23 11:55:08;;;;;;;10.80;4.90;;;28.60;96.70;;;;;;4931054;29;20672;-81
2022/06/23 11:58:05;;;;;;;10.48;5.85;;;28.40;96.70;;;;;;4944025;28;20595;-80
2022/06/23 12:00:39;;;;;;;;;;;28.40;96.70;;;;;;4935910;28;20070;-80
2022/06/23 12:03:28;;;;;;;10.82;5.15;;;28.30;96.70;;;;;;4948596;28;19970;-79
2022/06/23 12:06:09;;;;;;;7.70;4.85;;;28.20;96.70;;;;;;4949034;28;20489;-84
2022/06/23 12:08:52;;;;;;;10.55;5.60;;;28.30;96.70;;;;;;4950130;28;20166;-83
2022/06/23 12:11:22;;;;;;;11.88;5.57;;;28.30;96.70;;;;;;4939960;28;20142;-78
2022/06/23 12:13:51;;;;;;;12.90;5.30;;;28.40;96.70;;;;;;4945881;28;20535;-79
2022/06/23 12:16:20;;;;;;;9.65;4.68;;;28.50;96.70;;;;;;4964717;28;20067;-77
2022/06/23 12:18:52;;;;;;;13.60;5.65;;;28.50;96.70;;;;;;4973382;28;20049;-79
2022/06/23 12:21:32;;;;;;;9.98;5.68;;;28.60;96.70;;;;;;4953859;28;20141;-78
2022/06/23 12:24:11;;;;;;;9.60;4.75;;;28.80;96.70;;;;;;4971339;28;20066;-78
2022/06/23 12:26:46;;;;;;;12.93;5.72;;;29.10;96.70;;;;;;4958216;28;20078;-82
2022/06/23 12:29:20;;;;;;;10.63;5.63;;;29.30;96.70;;;;;;4936690;28;20497;-81
2022/06/23 12:31:56;;;;;;;9.18;4.97;;;29.50;96.70;;;;;;4968987;28;20509;-80
2022/06/23 12:34:33;;;;;;;9.32;4.70;;;29.70;96.70;;;;;;4962004;28;20050;-80
2022/06/23 12:37:10;;;;;;;;;;;29.70;96.70;;;;;;4967358;28;20504;-80
2022/06/23 12:39:44;;;;;;;;;;;30.00;96.70;;;;;;4969021;28;19925;-80
2022/06/23 12:42:18;;;;;;;13.10;5.15;;;29.90;96.70;;;;;;4970874;28;19926;-80
2022/06/23 12:45:07;;;;;;;9.38;5.13;;;29.80;96.70;;;;;;4975501;28;20948;-80
2022/06/23 12:47:49;;;;;;;10.38;5.38;;;29.80;96.70;;;;;;4959903;28;20539;-80
2022/06/23 12:50:40;;;;;;;10.93;5.18;;;29.50;96.70;;;;;;4974017;28;20046;-80
2022/06/23 12:54:05;;;;;;;10.60;5.32;;;29.40;96.70;;;;;;4914436;28;20069;-81
2022/06/23 12:56:51;;;;;;;8.57;5.57;;;29.40;96.70;;;;;;4968499;28;20054;-81
2022/06/23 12:59:28;;;;;;;9.35;4.93;;;29.40;96.70;;;;;;4971574;28;20606;-81
2022/06/23 13:02:08;;;;;;;9.55;4.63;;;29.50;96.70;;;;;;4968382;28;20055;-81
2022/06/23 13:04:47;;;;;;;10.48;5.32;;;29.50;96.70;;;;;;4965689;28;20137;-79
2022/06/23 13:07:23;;;;;;;15.18;5.22;;;29.40;96.70;;;;;;4966609;28;20058;-81
2022/06/23 13:10:01;;;;;;;9.55;4.90;;;29.30;96.70;;;;;;4953832;28;20065;-79
2022/06/23 13:12:42;;;;;;;11.25;5.53;;;29.10;96.70;;;;;;4950650;28;20109;-80
2022/06/23 13:15:16;;;;;;;11.75;5.38;;;28.90;96.70;;;;;;4966786;28;20057;-81
2022/06/23 13:17:52;;;;;;;11.35;5.47;;;28.90;96.70;;;;;;4962809;28;20055;-81
2022/06/23 13:20:27;;;;;;;12.93;5.57;;;28.90;96.70;;;;;;4960039;28;20050;-81
2022/06/23 13:23:02;;;;;;;8.90;4.78;;;28.90;96.70;;;;;;4966975;28;20051;-82
2022/06/23 13:25:46;;;;;;;12.02;5.70;;;29.00;96.70;;;;;;4966323;28;20133;-81
2022/06/23 13:28:31;;;;;;;11.57;4.90;;;29.20;96.70;;;;;;4945357;29;20055;-81
2022/06/23 13:31:07;;;;;;;12.88;5.40;;;29.30;96.70;;;;;;4946454;28;20065;-82
2022/06/23 13:33:41;;;;;;;12.88;4.80;;;29.40;96.70;;;;;;4965027;28;20228;-82
2022/06/23 13:36:17;;;;;;;14.68;5.30;;;29.70;96.70;;;;;;4947705;28;20071;-81
2022/06/23 13:38:59;;;;;;;9.35;4.65;;;30.40;96.70;;;;;;4966009;28;20074;-81
2022/06/23 13:41:34;;;;;;;12.38;4.80;;;31.00;96.70;;;;;;4946073;29;20055;-82
2022/06/23 13:44:09;;;;;;;11.52;4.90;;;31.70;96.70;;;;;;4961367;28;20310;-81
2022/06/23 13:46:41;;;;;;;13.98;4.85;;;32.20;96.70;;;;;;4959341;28;20098;-81
2022/06/23 13:49:17;;;;;;;17.40;5.50;;;32.50;96.70;;;;;;4935710;28;20050;-81
2022/06/23 13:51:53;;;;;;;8.50;4.93;;;32.10;96.70;;;;;;4952297;28;20043;-80